Time;durP1;ratioP1;P1;durP2;ratioP2;P2;SDS_P1;SDS_P2;PMS_P1;PMS_P2;Temp;Humidity;BMP_temperature;BMP_pressure;BME280_temperature;BME280_humidity;BME280_pressure;Samples;Min_cycle;Max_cycle;Signal;HPM_P1;HPM_P2
2023/05/02 00:01:08;;;;;;;12.70;8.10;;;;;;;12.01;100.00;101712.88;5030453;28;20702;-68
2023/05/02 00:03:34;;;;;;;16.07;8.80;;;;;;;12.03;100.00;101712.94;5026478;28;20240;-66
2023/05/02 00:06:00;;;;;;;13.57;9.17;;;;;;;12.01;100.00;101723.16;5027188;28;20227;-68
2023/05/02 00:08:25;;;;;;;15.67;10.40;;;;;;;12.01;100.00;101729.97;5023883;28;20201;-68
2023/05/02 00:10:50;;;;;;;15.23;10.77;;;;;;;11.94;100.00;101712.69;5026197;28;20231;-70
2023/05/02 00:13:16;;;;;;;19.37;10.90;;;;;;;11.94;100.00;101689.59;5027234;28;20222;-70
2023/05/02 00:15:42;;;;;;;19.17;12.10;;;;;;;11.91;100.00;101667.28;5025080;28;20345;-67
2023/05/02 00:18:07;;;;;;;15.97;11.17;;;;;;;11.88;100.00;101631.25;5029804;28;20206;-70
2023/05/02 00:20:33;;;;;;;16.63;11.57;;;;;;;11.86;100.00;101611.50;5025800;28;20229;-69
2023/05/02 00:22:58;;;;;;;16.57;12.43;;;;;;;11.84;100.00;101595.22;5021176;28;20198;-70
2023/05/02 00:25:24;;;;;;;16.07;12.47;;;;;;;11.82;100.00;101597.72;5027726;28;20820;-70
2023/05/02 00:27:49;;;;;;;20.67;12.13;;;;;;;11.78;100.00;101592.47;5028826;28;20205;-68
2023/05/02 00:30:16;;;;;;;17.63;11.97;;;;;;;11.75;100.00;101595.81;5027614;28;20762;-69
2023/05/02 00:32:42;;;;;;;19.97;13.00;;;;;;;11.72;100.00;101602.56;5011269;28;20218;-70
2023/05/02 00:35:08;;;;;;;22.87;13.77;;;;;;;11.66;100.00;101599.84;5017181;28;20558;-70
2023/05/02 00:37:34;;;;;;;21.50;12.93;;;;;;;11.62;100.00;101604.00;5019121;28;20197;-69
2023/05/02 00:39:59;;;;;;;19.83;12.80;;;;;;;11.62;100.00;101601.44;5022388;28;20219;-68
2023/05/02 00:42:25;;;;;;;19.57;13.70;;;;;;;11.58;100.00;101601.28;5026715;28;20194;-70
2023/05/02 00:44:50;;;;;;;19.70;13.80;;;;;;;11.56;100.00;101602.97;5012049;28;20195;-70
2023/05/02 00:47:16;;;;;;;21.30;14.33;;;;;;;11.54;100.00;101605.50;5023573;28;20286;-69
2023/05/02 00:49:41;;;;;;;23.60;14.50;;;;;;;11.51;100.00;101609.63;5022976;28;20273;-69
2023/05/02 00:52:08;;;;;;;23.63;14.63;;;;;;;11.41;100.00;101611.09;5019566;28;20211;-69
2023/05/02 00:54:33;;;;;;;21.70;14.33;;;;;;;11.39;100.00;101615.28;5023066;28;20229;-69
2023/05/02 00:56:58;;;;;;;24.73;15.23;;;;;;;11.37;100.00;101611.81;5009910;28;20270;-69
2023/05/02 00:59:25;;;;;;;22.53;14.47;;;;;;;11.36;100.00;101598.97;5026421;28;20240;-69
2023/05/02 01:01:57;;;;;;;23.73;16.17;;;;;;;11.36;100.00;101601.53;5008834;28;20206;-69
2023/05/02 01:04:34;;;;;;;22.50;16.33;;;;;;;11.37;100.00;101593.88;5003083;28;20198;-69
2023/05/02 01:07:03;;;;;;;25.33;16.20;;;;;;;11.39;100.00;101597.34;5020406;28;20248;-68
2023/05/02 01:09:45;;;;;;;25.33;17.10;;;;;;;11.37;100.00;101598.13;5023414;28;20245;-70
2023/05/02 01:12:38;;;;;;;25.10;17.70;;;;;;;11.40;100.00;101591.41;5027415;28;20218;-69
2023/05/02 01:15:09;;;;;;;29.60;19.43;;;;;;;11.43;100.00;101593.19;5029355;28;20202;-69
2023/05/02 01:17:35;;;;;;;30.93;19.57;;;;;;;11.44;100.00;101594.91;5009639;28;20199;-70
2023/05/02 01:20:18;;;;;;;28.97;19.50;;;;;;;11.43;100.00;101594.03;5022298;28;20243;-70
2023/05/02 01:22:45;;;;;;;30.13;21.20;;;;;;;11.45;100.00;101597.53;5016952;28;20548;-70
2023/05/02 01:25:29;;;;;;;29.20;20.70;;;;;;;11.46;100.00;101593.25;5020777;28;20206;-69
2023/05/02 01:27:58;;;;;;;30.63;19.97;;;;;;;11.46;100.00;101588.13;5023216;28;20201;-69
2023/05/02 01:30:27;;;;;;;33.07;20.57;;;;;;;11.45;100.00;101594.09;5028893;28;20297;-70
2023/05/02 01:32:56;;;;;;;29.17;20.37;;;;;;;11.47;100.00;101595.88;5009766;28;20218;-69
2023/05/02 01:35:23;;;;;;;29.53;20.37;;;;;;;11.48;100.00;101591.63;5010844;28;20198;-70
2023/05/02 01:37:51;;;;;;;29.70;19.93;;;;;;;11.48;100.00;101596.75;5008834;28;20266;-70
2023/05/02 01:40:21;;;;;;;30.47;19.80;;;;;;;11.49;100.00;101591.66;5021302;28;20237;-69
2023/05/02 01:42:50;;;;;;;31.00;19.50;;;;;;;11.52;100.00;101596.84;5005111;28;20220;-71
2023/05/02 01:45:17;;;;;;;28.27;19.10;;;;;;;11.54;100.00;101596.91;5026876;28;20290;-70
2023/05/02 01:47:44;;;;;;;28.57;18.97;;;;;;;11.57;100.00;101599.56;5004557;28;20282;-70
2023/05/02 01:50:23;;;;;;;29.07;18.30;;;;;;;11.59;100.00;101598.81;5025769;28;20218;-70
2023/05/02 01:52:51;;;;;;;28.00;19.43;;;;;;;11.58;100.00;101597.06;5010360;28;20261;-70
2023/05/02 01:55:17;;;;;;;28.23;19.60;;;;;;;11.60;100.00;101602.22;5019777;28;20213;-70
2023/05/02 01:57:45;;;;;;;29.00;19.03;;;;;;;11.62;100.00;101598.03;5022438;28;20563;-69
2023/05/02 02:00:15;;;;;;;27.17;19.17;;;;;;;11.63;100.00;101604.88;5009130;28;20218;-68
2023/05/02 02:02:44;;;;;;;25.90;18.87;;;;;;;11.63;100.00;101610.91;5021054;28;20222;-68
2023/05/02 02:05:11;;;;;;;30.10;19.80;;;;;;;11.64;100.00;101609.19;5001958;28;20195;-71
2023/05/02 02:07:36;;;;;;;32.70;20.43;;;;;;;11.65;100.00;101608.34;5023924;28;20282;-67
2023/05/02 02:10:02;;;;;;;32.30;21.20;;;;;;;11.64;100.00;101609.19;5024763;28;20329;-69
2023/05/02 02:12:35;;;;;;;30.70;21.40;;;;;;;11.63;100.00;101613.47;5006281;28;20199;-70
2023/05/02 02:15:26;;;;;;;29.87;21.60;;;;;;;11.64;100.00;101611.75;5023684;28;20674;-69
2023/05/02 02:18:01;;;;;;;34.53;23.67;;;;;;;11.64;100.00;101625.47;5022084;28;20238;-69
2023/05/02 02:20:31;;;;;;;34.63;22.67;;;;;;;11.64;100.00;101620.34;5016482;28;20741;-69
2023/05/02 02:22:59;;;;;;;35.13;23.13;;;;;;;11.64;100.00;101614.31;5017153;28;20188;-69
2023/05/02 02:25:25;;;;;;;31.03;21.77;;;;;;;11.61;100.00;101612.53;5021979;28;20726;-68
2023/05/02 02:27:51;;;;;;;28.57;20.03;;;;;;;11.62;100.00;101624.53;5006777;28;20757;-67
2023/05/02 02:30:17;;;;;;;23.33;16.03;;;;;;;11.57;100.00;101625.22;5026577;28;20386;-67
2023/05/02 02:32:42;;;;;;;19.50;13.40;;;;;;;11.51;100.00;101625.91;5018116;28;20220;-68
2023/05/02 02:35:09;;;;;;;18.57;12.57;;;;;;;11.53;100.00;101624.25;5025033;28;20248;-68
2023/05/02 02:37:40;;;;;;;18.60;13.20;;;;;;;11.51;100.00;101630.16;5000462;28;20191;-69
2023/05/02 02:40:19;;;;;;;17.83;11.80;;;;;;;11.51;100.00;101631.03;5022829;28;20293;-68
2023/05/02 02:42:54;;;;;;;18.17;12.60;;;;;;;11.48;100.00;101630.94;5020880;28;20188;-69
2023/05/02 02:45:45;;;;;;;16.33;11.90;;;;;;;11.46;100.00;101635.16;5022094;28;20194;-68
2023/05/02 02:48:38;;;;;;;23.33;14.23;;;;;;;11.46;100.00;101635.16;5016216;28;20217;-69
2023/05/02 02:51:12;;;;;;;22.73;15.73;;;;;;;11.46;100.00;101641.97;5017797;28;20241;-68
2023/05/02 02:54:03;;;;;;;21.30;14.37;;;;;;;11.43;100.00;101647.03;5006983;28;20217;-69
2023/05/02 02:56:39;;;;;;;21.13;14.00;;;;;;;11.42;100.00;101647.84;5019846;28;20191;-69
2023/05/02 02:59:15;;;;;;;20.23;11.93;;;;;;;11.42;100.00;101653.84;5020604;28;20225;-69
2023/05/02 03:01:45;;;;;;;18.33;11.67;;;;;;;11.40;100.00;101658.09;5020820;28;20208;-69
2023/05/02 03:04:13;;;;;;;16.13;11.57;;;;;;;11.38;100.00;101661.44;5023024;28;20205;-69
2023/05/02 03:06:39;;;;;;;15.50;10.57;;;;;;;11.39;100.00;101668.28;5004962;28;20221;-70
2023/05/02 03:09:04;;;;;;;16.90;10.60;;;;;;;11.34;100.00;101668.13;5004371;28;20218;-69
2023/05/02 03:11:30;;;;;;;16.90;11.67;;;;;;;11.34;100.00;101678.41;5004773;28;20198;-69
2023/05/02 03:13:57;;;;;;;14.13;10.70;;;;;;;11.33;100.00;101683.50;5008300;28;20206;-69
2023/05/02 03:16:37;;;;;;;16.93;10.50;;;;;;;11.33;100.00;101675.81;5004534;28;20231;-69
2023/05/02 03:19:06;;;;;;;15.20;9.83;;;;;;;11.28;100.00;101680.78;5019164;28;20194;-69
2023/05/02 03:21:32;;;;;;;11.40;7.87;;;;;;;11.28;100.00;101683.34;5003068;28;20203;-70
2023/05/02 03:24:04;;;;;;;10.90;8.07;;;;;;;11.23;100.00;101691.72;5016932;28;20191;-70
2023/05/02 03:26:30;;;;;;;9.67;5.97;;;;;;;11.18;100.00;101698.41;5003354;28;20190;-69
2023/05/02 03:28:57;;;;;;;8.30;5.93;;;;;;;11.10;100.00;101703.31;5006420;28;20205;-68
2023/05/02 03:31:28;;;;;;;6.37;5.50;;;;;;;11.02;100.00;101715.00;5009272;28;20706;-70
2023/05/02 03:33:54;;;;;;;6.63;5.40;;;;;;;10.99;100.00;101721.72;5023485;28;20227;-67
2023/05/02 03:36:19;;;;;;;9.77;6.83;;;;;;;10.90;100.00;101722.31;5007504;28;20288;-69
2023/05/02 03:38:45;;;;;;;8.87;6.50;;;;;;;10.74;100.00;101727.75;5009192;28;20190;-69
2023/05/02 03:41:12;;;;;;;12.00;5.33;;;;;;;10.61;100.00;101741.00;5009441;28;20765;-70
2023/05/02 03:43:39;;;;;;;8.70;4.60;;;;;;;10.49;100.00;101760.16;5025710;28;20186;-69
2023/05/02 03:46:06;;;;;;;12.27;4.30;;;;;;;10.36;100.00;101756.31;5030931;28;20248;-69
2023/05/02 03:48:34;;;;;;;10.90;4.43;;;;;;;10.29;100.00;101761.19;5009036;28;20286;-68
2023/05/02 03:51:02;;;;;;;13.37;4.60;;;;;;;10.16;100.00;101761.56;5009759;28;20320;-67
2023/05/02 03:53:30;;;;;;;11.87;4.37;;;;;;;10.11;100.00;101774.22;5020757;28;20277;-69
2023/05/02 03:55:58;;;;;;;15.67;4.07;;;;;;;10.03;100.00;101787.47;5023493;28;20257;-70
2023/05/02 03:58:37;;;;;;;15.63;5.10;;;;;;;9.93;100.00;101796.53;5028117;28;20297;-69
2023/05/02 04:01:03;;;;;;;16.63;5.53;;;;;;;9.92;100.00;101809.25;5011845;28;20794;-70
2023/05/02 04:03:28;;;;;;;17.23;5.00;;;;;;;9.74;100.00;101809.44;5028465;28;20281;-69
2023/05/02 04:05:54;;;;;;;20.67;5.80;;;;;;;9.41;100.00;101808.16;5009179;28;20285;-67
2023/05/02 04:08:20;;;;;;;13.43;5.03;;;;;;;9.44;100.00;101828.69;5009871;28;20198;-68
2023/05/02 04:10:45;;;;;;;20.63;5.20;;;;;;;9.39;100.00;101836.97;5009595;28;20264;-69
2023/05/02 04:13:12;;;;;;;16.80;5.43;;;;;;;9.39;100.00;101839.53;5015263;28;20761;-68
2023/05/02 04:15:41;;;;;;;15.50;5.03;;;;;;;9.35;100.00;101845.38;5027682;28;20735;-69
2023/05/02 04:18:06;;;;;;;19.10;5.33;;;;;;;9.27;100.00;101851.84;5022580;28;20193;-68
2023/05/02 04:20:33;;;;;;;24.77;5.23;;;;;;;9.21;100.00;101851.59;5024117;28;20758;-69
2023/05/02 04:22:58;;;;;;;16.40;4.93;;;;;;;9.13;100.00;101866.59;5022189;28;20200;-69
2023/05/02 04:25:24;;;;;;;17.13;5.10;;;;;;;9.16;100.00;101865.84;5008197;28;20186;-69
2023/05/02 04:27:52;;;;;;;18.60;4.67;;;;;;;9.21;100.00;101865.22;5009766;28;20276;-69
2023/05/02 04:30:21;;;;;;;17.40;4.77;;;;;;;9.21;100.00;101872.06;5023280;28;20222;-68
2023/05/02 04:32:55;;;;;;;16.80;5.17;;;;;;;9.15;100.00;101880.31;5008094;28;20304;-69
2023/05/02 04:35:21;;;;;;;15.67;4.90;;;;;;;9.16;100.00;101888.84;5024206;28;20334;-68
2023/05/02 04:37:47;;;;;;;18.90;4.83;;;;;;;9.18;100.00;101897.47;5009084;28;20286;-68
2023/05/02 04:40:14;;;;;;;17.10;4.57;;;;;;;9.16;100.00;101902.50;5012280;28;20218;-67
2023/05/02 04:42:41;;;;;;;19.07;4.70;;;;;;;9.15;100.00;101908.44;5025768;28;20197;-67
2023/05/02 04:45:14;;;;;;;16.57;4.17;;;;;;;9.03;100.00;101907.91;4998500;28;20238;-70
2023/05/02 04:47:41;;;;;;;15.57;4.90;;;;;;;8.99;100.00;101920.50;5027168;28;20205;-68
2023/05/02 04:50:08;;;;;;;25.00;5.30;;;;;;;8.98;100.00;101914.50;5003321;28;20214;-68
2023/05/02 04:52:34;;;;;;;14.50;4.43;;;;;;;9.00;100.00;101932.44;5025145;28;20213;-68
2023/05/02 04:55:00;;;;;;;16.97;4.80;;;;;;;9.02;100.00;101925.72;5009886;28;20954;-69
2023/05/02 04:57:26;;;;;;;15.43;5.40;;;;;;;8.99;100.00;101934.13;5024570;28;20210;-69
2023/05/02 04:59:56;;;;;;;11.03;4.23;;;;;;;9.00;100.00;101952.88;5009262;28;20214;-70
2023/05/02 05:02:22;;;;;;;14.73;4.47;;;;;;;9.06;100.00;101948.03;5021036;28;20209;-69
2023/05/02 05:04:48;;;;;;;12.20;3.80;;;;;;;9.06;100.00;101950.59;5005063;28;20201;-69
2023/05/02 05:07:14;;;;;;;17.13;4.90;;;;;;;8.98;100.00;101942.59;5007108;28;20201;-68
2023/05/02 05:09:41;;;;;;;12.73;3.83;;;;;;;8.97;100.00;101953.63;5021070;28;20298;-69
2023/05/02 05:12:07;;;;;;;13.30;3.40;;;;;;;9.03;100.00;101950.47;5007888;28;20298;-70
2023/05/02 05:14:34;;;;;;;16.23;3.73;;;;;;;9.02;100.00;101941.94;5008725;28;20241;-69
2023/05/02 05:17:00;;;;;;;13.63;2.90;;;;;;;9.03;100.00;101914.72;5009172;28;20190;-69
2023/05/02 05:19:26;;;;;;;15.17;4.33;;;;;;;8.99;100.00;101935.81;5007461;28;20250;-69
2023/05/02 05:21:52;;;;;;;9.27;3.10;;;;;;;9.20;100.00;101926.50;5017707;28;20588;-69
2023/05/02 05:24:19;;;;;;;14.73;3.83;;;;;;;9.29;100.00;101901.31;5025382;28;20202;-68
2023/05/02 05:26:45;;;;;;;16.67;3.57;;;;;;;9.45;100.00;101919.06;5008409;28;20527;-69
2023/05/02 05:29:11;;;;;;;13.53;3.67;;;;;;;9.51;100.00;101924.41;5007483;28;20201;-68
2023/05/02 05:31:40;;;;;;;18.77;3.50;;;;;;;9.59;100.00;101935.81;5022395;28;20186;-69
2023/05/02 05:34:06;;;;;;;10.40;3.57;;;;;;;9.60;100.00;101924.78;5008547;28;20214;-68
2023/05/02 05:36:32;;;;;;;11.63;3.40;;;;;;;9.63;100.00;101907.88;5008794;28;20201;-69
2023/05/02 05:38:57;;;;;;;10.67;3.33;;;;;;;9.58;100.00;101903.41;5020247;28;20715;-68
2023/05/02 05:41:23;;;;;;;14.17;4.47;;;;;;;9.35;100.00;101882.00;5023275;28;20660;-68
2023/05/02 05:43:55;;;;;;;10.57;3.37;;;;;;;9.30;100.00;101911.63;5008712;28;20217;-68
2023/05/02 05:46:22;;;;;;;11.97;3.60;;;;;;;9.37;100.00;101923.84;5027382;28;20205;-68
2023/05/02 05:48:48;;;;;;;9.90;3.63;;;;;;;9.42;100.00;101934.25;5011006;28;20194;-69
2023/05/02 05:51:13;;;;;;;14.90;4.03;;;;;;;9.33;100.00;101938.97;5012002;28;20215;-68
2023/05/02 05:53:39;;;;;;;12.77;3.53;;;;;;;9.41;100.00;101956.41;5005871;28;20219;-69
2023/05/02 05:56:09;;;;;;;10.97;3.30;;;;;;;9.39;100.00;101975.91;5008988;28;20202;-69
2023/05/02 05:58:35;;;;;;;12.17;3.83;;;;;;;9.31;100.00;101987.47;5027344;28;20710;-69
2023/05/02 06:01:02;;;;;;;13.90;4.03;;;;;;;9.20;100.00;101998.03;5010033;28;20305;-68
2023/05/02 06:03:27;;;;;;;14.20;3.87;;;;;;;9.09;100.00;101973.72;5007337;28;20277;-68
2023/05/02 06:05:53;;;;;;;19.33;4.20;;;;;;;9.13;100.00;101950.06;5010361;28;20193;-69
2023/05/02 06:08:20;;;;;;;14.33;3.80;;;;;;;9.19;100.00;101956.31;5015670;28;20203;-69
2023/05/02 06:10:46;;;;;;;16.30;4.10;;;;;;;9.21;100.00;101975.13;5020288;28;20305;-69
2023/05/02 06:13:11;;;;;;;18.47;4.30;;;;;;;9.18;100.00;101987.78;5012817;28;20301;-68
2023/05/02 06:15:40;;;;;;;18.03;3.67;;;;;;;9.16;100.00;101963.81;5025837;28;20197;-68
2023/05/02 06:18:06;;;;;;;15.10;4.13;;;;;;;9.09;100.00;101968.63;5010688;28;20631;-69
2023/05/02 06:20:32;;;;;;;16.43;3.77;;;;;;;9.06;100.00;101960.81;5025088;28;20218;-69
2023/05/02 06:22:58;;;;;;;16.27;3.63;;;;;;;9.06;100.00;101961.69;5017972;28;20186;-68
2023/05/02 06:25:23;;;;;;;10.87;3.07;;;;;;;9.01;100.00;101947.84;5021969;28;20280;-68
2023/05/02 06:27:49;;;;;;;12.97;3.23;;;;;;;8.94;100.00;101955.19;5015566;28;20527;-68
2023/05/02 06:30:14;;;;;;;19.57;4.00;;;;;;;8.95;100.00;101949.25;5002483;28;20221;-68
2023/05/02 06:32:42;;;;;;;11.97;3.50;;;;;;;8.93;100.00;101950.84;5004692;28;20211;-69
2023/05/02 06:35:10;;;;;;;14.43;3.03;;;;;;;8.90;100.00;101946.50;5005281;28;20209;-69
2023/05/02 06:37:35;;;;;;;11.83;3.30;;;;;;;8.88;100.00;101957.44;5022647;28;20199;-69
2023/05/02 06:40:01;;;;;;;11.70;3.60;;;;;;;8.90;100.00;101979.69;5020077;28;20703;-69
2023/05/02 06:42:28;;;;;;;10.23;3.47;;;;;;;8.87;100.00;101984.69;5022889;28;20206;-69
2023/05/02 06:44:54;;;;;;;11.20;2.93;;;;;;;8.70;100.00;101983.06;5019975;28;20289;-69
2023/05/02 06:47:19;;;;;;;14.53;3.40;;;;;;;8.76;100.00;101990.97;5009470;28;20545;-69
2023/05/02 06:49:45;;;;;;;12.23;3.17;;;;;;;8.73;100.00;101995.06;5018291;28;20562;-69
2023/05/02 06:52:10;;;;;;;19.03;3.77;;;;;;;8.77;100.00;102020.84;5017686;28;20206;-69
2023/05/02 06:54:35;;;;;;;11.97;3.70;;;;;;;8.80;100.00;102025.22;5004095;28;20209;-68
2023/05/02 06:57:01;;;;;;;14.27;3.53;;;;;;;8.93;100.00;102068.34;4993692;28;20234;-68
2023/05/02 06:59:27;;;;;;;8.67;3.60;;;;;;;9.07;100.00;102041.78;5025489;28;20234;-68
2023/05/02 07:01:52;;;;;;;12.20;3.80;;;;;;;9.17;100.00;101951.94;5025673;28;20187;-71
2023/05/02 07:04:18;;;;;;;7.87;3.00;;;;;;;9.22;100.00;101919.78;5005601;28;20614;-69
2023/05/02 07:06:44;;;;;;;8.97;3.30;;;;;;;9.26;100.00;101896.97;5021306;28;20567;-68
2023/05/02 07:09:10;;;;;;;7.80;3.13;;;;;;;9.33;100.00;101905.75;5023492;28;20195;-69
2023/05/02 07:11:36;;;;;;;9.80;3.30;;;;;;;9.41;100.00;101897.63;5020387;28;20198;-69
2023/05/02 07:14:01;;;;;;;9.30;3.43;;;;;;;9.34;100.00;101879.38;5007681;28;20268;-69
2023/05/02 07:16:27;;;;;;;9.47;3.30;;;;;;;9.33;100.00;101872.53;5011034;28;20198;-68
2023/05/02 07:18:52;;;;;;;10.33;3.30;;;;;;;9.33;100.00;101870.84;5027522;28;20233;-69
2023/05/02 07:21:18;;;;;;;13.27;4.33;;;;;;;9.15;100.00;101875.22;5024908;28;20253;-71
2023/05/02 07:23:43;;;;;;;11.90;3.80;;;;;;;9.20;100.00;101899.28;5020784;28;20193;-69
2023/05/02 07:26:09;;;;;;;9.80;3.73;;;;;;;9.19;100.00;101901.75;5024946;28;20202;-69
2023/05/02 07:28:34;;;;;;;9.93;3.60;;;;;;;9.20;100.00;101908.59;5026300;28;20251;-68
2023/05/02 07:31:00;;;;;;;10.33;4.03;;;;;;;9.22;100.00;101907.84;5030526;28;20324;-69
2023/05/02 07:33:25;;;;;;;8.27;3.17;;;;;;;9.14;100.00;101896.47;5026374;28;20360;-68
2023/05/02 07:35:50;;;;;;;10.23;3.53;;;;;;;9.09;100.00;101871.53;5018842;28;20294;-70
2023/05/02 07:38:16;;;;;;;10.03;3.67;;;;;;;9.24;100.00;101867.03;5009633;28;20291;-68
2023/05/02 07:40:42;;;;;;;9.60;3.97;;;;;;;9.25;100.00;101862.00;5022162;28;20561;-69
2023/05/02 07:43:08;;;;;;;8.17;3.50;;;;;;;9.26;100.00;101853.50;5014794;28;20213;-69
2023/05/02 07:45:34;;;;;;;10.53;3.37;;;;;;;9.32;100.00;101843.56;5030413;28;20198;-69
2023/05/02 07:47:59;;;;;;;9.60;3.67;;;;;;;9.39;100.00;101830.19;5023102;28;20194;-69
2023/05/02 07:50:26;;;;;;;7.57;3.30;;;;;;;9.46;100.00;101831.31;5026166;28;20218;-68
2023/05/02 07:52:52;;;;;;;7.00;3.00;;;;;;;9.40;100.00;101818.31;5026081;28;20223;-68
2023/05/02 07:55:17;;;;;;;8.03;3.07;;;;;;;9.37;100.00;101767.94;5023398;28;20554;-68
2023/05/02 07:57:43;;;;;;;12.23;3.47;;;;;;;9.52;100.00;101749.75;5020644;28;20191;-69
2023/05/02 08:00:09;;;;;;;8.87;3.47;;;;;;;9.73;100.00;101758.22;5030072;28;20576;-69
2023/05/02 08:02:41;;;;;;;6.07;3.13;;;;;;;9.85;100.00;101743.31;5030871;28;20237;-69
2023/05/02 08:05:07;;;;;;;8.50;3.53;;;;;;;9.90;100.00;101709.44;5024323;28;20285;-69
2023/05/02 08:07:34;;;;;;;10.27;3.10;;;;;;;9.97;100.00;101693.50;5024912;28;20210;-69
2023/05/02 08:10:00;;;;;;;7.37;3.90;;;;;;;10.04;99.99;101700.59;5026969;28;20289;-69
2023/05/02 08:12:25;;;;;;;9.07;3.27;;;;;;;10.08;96.30;101686.19;5024182;28;20300;-68
2023/05/02 08:14:50;;;;;;;7.47;2.43;;;;;;;10.17;95.61;101664.38;5026786;28;20575;-68
2023/05/02 08:17:16;;;;;;;6.43;2.37;;;;;;;10.24;94.11;101674.00;5031515;28;20194;-68
2023/05/02 08:19:41;;;;;;;9.87;2.40;;;;;;;10.26;92.05;101645.88;5025624;28;20638;-68
2023/05/02 08:22:07;;;;;;;5.97;2.13;;;;;;;10.38;92.86;101666.78;5005082;28;20205;-68
2023/05/02 08:24:32;;;;;;;4.20;1.90;;;;;;;10.94;89.67;101639.59;5028160;28;20199;-67
2023/05/02 08:26:58;;;;;;;4.33;1.80;;;;;;;10.82;84.98;101587.97;5021219;28;20314;-69
2023/05/02 08:29:23;;;;;;;8.33;2.00;;;;;;;10.74;83.47;101584.31;5026660;28;20773;-69
2023/05/02 08:31:49;;;;;;;5.47;2.17;;;;;;;10.64;82.21;101582.28;5028760;28;20206;-69
2023/05/02 08:34:14;;;;;;;8.00;2.20;;;;;;;10.77;88.09;101629.63;5026933;28;20561;-69
2023/05/02 08:36:40;;;;;;;8.87;2.20;;;;;;;10.71;90.71;101650.81;5020984;28;20194;-68
2023/05/02 08:39:07;;;;;;;5.53;2.30;;;;;;;10.72;88.84;101661.91;5024946;28;20202;-68
2023/05/02 08:41:32;;;;;;;7.13;2.20;;;;;;;10.75;85.87;101639.84;5027025;28;20206;-68
2023/05/02 08:43:58;;;;;;;8.97;3.03;;;;;;;10.83;83.93;101640.94;5008836;28;20836;-68
2023/05/02 08:46:25;;;;;;;9.50;2.60;;;;;;;10.94;85.31;101639.59;5028245;28;20229;-68
2023/05/02 08:48:52;;;;;;;6.30;2.57;;;;;;;11.03;84.50;101645.00;5021365;28;20190;-68
2023/05/02 08:51:18;;;;;;;5.47;2.33;;;;;;;11.00;82.10;101634.66;5026760;28;20688;-68
2023/05/02 08:53:44;;;;;;;6.47;2.30;;;;;;;10.90;76.46;101598.44;5011133;28;20273;-69
2023/05/02 08:56:11;;;;;;;8.07;2.40;;;;;;;11.32;76.48;101598.00;5008542;28;20254;-68
2023/05/02 08:58:38;;;;;;;7.00;2.10;;;;;;;11.39;75.45;101589.66;5021522;28;20627;-69
2023/05/02 09:01:23;;;;;;;6.80;2.47;;;;;;;11.86;74.54;101589.28;5028418;28;20260;-68
2023/05/02 09:03:49;;;;;;;5.70;1.97;;;;;;;11.80;71.84;101567.72;5025747;28;20186;-68
2023/05/02 09:06:20;;;;;;;5.53;2.20;;;;;;;11.79;71.98;101582.25;5021747;28;20558;-69
2023/05/02 09:08:48;;;;;;;8.73;2.20;;;;;;;11.85;70.55;101586.69;5020791;28;20191;-68
2023/05/02 09:11:14;;;;;;;6.13;1.90;;;;;;;11.91;68.94;101577.44;5026701;28;20253;-68
2023/05/02 09:13:43;;;;;;;5.87;2.20;;;;;;;11.98;68.42;101575.91;5028721;28;20223;-68
2023/05/02 09:16:09;;;;;;;8.77;2.10;;;;;;;12.23;68.69;101596.22;5029157;28;20233;-68
2023/05/02 09:18:47;;;;;;;6.40;1.77;;;;;;;12.31;66.82;101574.16;5022228;28;20198;-69
2023/05/02 09:21:17;;;;;;;5.50;2.17;;;;;;;13.07;62.67;101559.63;5025853;28;20794;-69
2023/05/02 09:23:48;;;;;;;7.97;2.43;;;;;;;13.20;62.42;101560.75;5022159;28;20274;-68
2023/05/02 09:26:32;;;;;;;8.13;1.90;;;;;;;13.40;58.99;101631.50;5012284;28;20248;-68
2023/05/02 09:29:00;;;;;;;6.27;2.60;;;;;;;13.14;58.99;101663.50;5022648;28;20218;-68
2023/05/02 09:31:33;;;;;;;7.60;2.33;;;;;;;13.05;60.37;101699.28;5029356;28;20195;-67
2023/05/02 09:34:13;;;;;;;5.73;2.10;;;;;;;12.98;61.60;101716.28;5022200;28;20587;-68
2023/05/02 09:36:40;;;;;;;9.03;2.60;;;;;;;13.08;61.64;101720.78;5021595;28;20197;-69
2023/05/02 09:39:12;;;;;;;8.93;2.57;;;;;;;12.81;61.57;101745.84;5020901;28;20298;-68
2023/05/02 09:41:45;;;;;;;10.07;2.77;;;;;;;12.94;59.50;101737.56;5026452;28;20200;-69
2023/05/02 09:44:19;;;;;;;8.83;2.53;;;;;;;13.23;59.57;101752.03;5024389;28;20676;-68
2023/05/02 09:46:46;;;;;;;5.93;2.10;;;;;;;13.08;59.06;101755.94;5025527;28;20197;-69
2023/05/02 09:49:13;;;;;;;4.37;2.60;;;;;;;13.58;59.09;101765.69;5024232;28;20204;-68
2023/05/02 09:51:39;;;;;;;6.67;2.23;;;;;;;14.11;54.70;101729.03;5025743;28;20297;-69
2023/05/02 09:54:04;;;;;;;4.00;2.00;;;;;;;14.24;54.40;101768.00;4997964;28;20218;-68
2023/05/02 09:56:30;;;;;;;4.43;2.30;;;;;;;14.27;53.79;101814.41;4997628;28;20213;-68
2023/05/02 09:59:13;;;;;;;6.93;2.30;;;;;;;14.21;53.07;101834.91;5011862;28;20202;-67
2023/05/02 10:01:41;;;;;;;10.17;2.30;;;;;;;14.52;53.36;101867.31;5027297;28;20691;-68
2023/05/02 10:04:15;;;;;;;6.73;2.77;;;;;;;14.87;55.03;101900.66;5021455;28;20199;-68
2023/05/02 10:06:44;;;;;;;4.63;1.90;;;;;;;14.63;51.19;101858.94;5024149;28;20191;-67
2023/05/02 10:09:11;;;;;;;7.63;2.10;;;;;;;14.77;52.71;101913.34;5022479;28;20198;-68
2023/05/02 10:11:43;;;;;;;4.57;1.80;;;;;;;14.86;50.97;101978.00;5019029;28;20206;-67
2023/05/02 10:14:10;;;;;;;6.83;1.93;;;;;;;15.05;49.92;102017.09;5018258;28;20218;-67
2023/05/02 10:16:45;;;;;;;9.00;2.50;;;;;;;15.69;48.37;102030.41;5026615;28;20236;-68
2023/05/02 10:19:11;;;;;;;4.70;2.10;;;;;;;16.39;47.35;102024.69;5017543;28;20248;-67
2023/05/02 10:21:39;;;;;;;9.03;2.17;;;;;;;16.42;47.03;102041.13;5024892;28;20281;-67
2023/05/02 10:24:05;;;;;;;6.33;1.83;;;;;;;15.68;48.11;102069.13;5023976;28;20183;-67
2023/05/02 10:26:33;;;;;;;6.07;2.00;;;;;;;15.18;49.64;102093.91;5019273;28;20649;-67
2023/05/02 10:28:59;;;;;;;4.50;1.70;;;;;;;14.60;50.15;102115.81;5019439;28;20617;-69
2023/05/02 10:31:26;;;;;;;5.23;1.30;;;;;;;14.63;51.07;102136.50;5027495;28;20229;-68
2023/05/02 10:33:51;;;;;;;1.83;1.10;;;;;;;14.80;51.30;102146.41;5023375;28;20229;-68
2023/05/02 10:36:21;;;;;;;4.00;1.60;;;;;;;14.45;50.34;102125.78;5026980;28;20186;-68
2023/05/02 10:38:47;;;;;;;3.47;1.10;;;;;;;14.58;50.24;102131.25;5020983;28;20190;-68
2023/05/02 10:41:17;;;;;;;4.13;1.40;;;;;;;15.58;49.51;102108.53;5006669;28;20283;-68
2023/05/02 10:43:48;;;;;;;3.10;1.47;;;;;;;15.26;50.17;102101.81;5018571;28;20241;-68
2023/05/02 10:46:42;;;;;;;3.30;1.40;;;;;;;15.03;49.46;102095.31;5018178;28;20216;-68
2023/05/02 10:49:12;;;;;;;3.00;1.50;;;;;;;14.77;51.31;102129.94;4998438;28;20195;-68
2023/05/02 10:51:40;;;;;;;4.23;1.40;;;;;;;14.65;53.17;102164.06;5007013;28;20304;-69
2023/05/02 10:54:20;;;;;;;5.37;1.73;;;;;;;14.11;53.17;102167.81;5017016;28;20321;-69
2023/05/02 10:57:02;;;;;;;7.27;1.20;;;;;;;14.31;55.90;102207.03;5018480;28;20203;-69
2023/05/02 10:59:37;;;;;;;6.37;1.73;;;;;;;14.37;56.69;102217.50;5018620;28;20213;-68
2023/05/02 11:02:26;;;;;;;4.00;1.70;;;;;;;14.07;54.76;102185.72;5027287;28;20209;-68
2023/05/02 11:05:06;;;;;;;4.80;1.57;;;;;;;14.30;56.92;102223.28;5025061;28;20190;-68
2023/05/02 11:07:33;;;;;;;4.23;1.87;;;;;;;14.23;54.79;102193.91;5020430;28;20571;-68
2023/05/02 11:10:16;;;;;;;7.93;2.10;;;;;;;14.21;54.21;102185.28;5015912;28;20217;-69
2023/05/02 11:12:46;;;;;;;3.73;1.83;;;;;;;14.05;55.20;102195.13;5019998;28;20245;-68
2023/05/02 11:15:12;;;;;;;6.27;1.87;;;;;;;13.94;53.96;102175.91;5019139;28;20700;-69
2023/05/02 11:18:07;;;;;;;2.67;1.50;;;;;;;14.72;55.02;102186.59;5025021;28;20203;-69
2023/05/02 11:20:34;;;;;;;4.83;1.50;;;;;;;15.83;50.65;102111.59;5017699;28;20218;-67